createdAt,value
2023-03-01T09:13:15.353Z,64.42
2023-03-01T09:14:16.476Z,71.46
2023-03-01T09:15:16.472Z,65.72
2023-03-01T09:16:16.456Z,65.30
2023-03-01T09:17:16.430Z,63.02
2023-03-01T09:18:16.441Z,68.85
2023-03-01T09:19:16.431Z,61.53
2023-03-01T09:20:16.406Z,62.20
2023-03-01T09:21:16.419Z,64.42
2023-03-01T09:22:16.393Z,67.31
2023-03-01T09:23:16.388Z,69.20
2023-03-01T09:24:16.416Z,66.80
2023-03-01T09:25:16.389Z,65.00
2023-03-01T09:26:16.387Z,67.02
2023-03-01T09:27:16.370Z,66.84
2023-03-01T09:28:29.171Z,70.82
2023-03-01T09:29:18.338Z,69.86
2023-03-01T09:30:16.332Z,67.89
2023-03-01T09:31:16.408Z,65.55
2023-03-01T09:32:16.529Z,68.24
2023-03-01T09:33:16.313Z,69.09
2023-03-01T09:34:16.306Z,69.24
2023-03-01T09:35:16.328Z,68.20
2023-03-01T09:36:16.283Z,64.43
2023-03-01T09:37:16.275Z,66.77
2023-03-01T09:38:16.378Z,71.79
2023-03-01T09:39:16.295Z,71.31
2023-03-01T09:40:16.277Z,69.83
2023-03-01T09:41:16.261Z,69.27
2023-03-01T09:42:16.240Z,59.72
2023-03-01T09:43:16.227Z,69.86
2023-03-01T09:44:48.114Z,66.18
2023-03-01T09:45:16.198Z,62.26
2023-03-01T09:46:16.328Z,66.28
2023-03-01T09:47:16.186Z,65.80
2023-03-01T09:48:16.211Z,68.03
2023-03-01T09:49:16.180Z,65.11
2023-03-01T09:50:16.183Z,67.65
2023-03-01T09:51:16.163Z,71.88
2023-03-01T09:52:16.162Z,66.60
2023-03-01T09:53:16.168Z,63.64
2023-03-01T09:54:16.157Z,66.60
2023-03-01T09:55:16.151Z,66.64
2023-03-01T09:56:16.129Z,69.41
2023-03-01T09:57:16.131Z,69.94
2023-03-01T09:58:16.122Z,70.33
2023-03-01T09:59:16.097Z,67.84
2023-03-01T10:00:16.090Z,63.10
2023-03-01T10:01:16.073Z,65.59
2023-03-01T10:02:16.108Z,65.17
2023-03-01T10:03:16.113Z,71.66
2023-03-01T10:04:16.217Z,65.59
2023-03-01T10:05:16.070Z,65.85
2023-03-01T10:06:27.579Z,67.41
2023-03-01T10:07:18.057Z,63.87
2023-03-01T10:08:16.070Z,67.74
2023-03-01T10:09:16.046Z,69.79
2023-03-01T10:10:16.030Z,69.11
2023-03-01T10:11:16.039Z,70.29
2023-03-01T10:12:16.005Z,61.52
2023-03-01T10:13:16.012Z,63.44
2023-03-01T10:14:15.983Z,67.94
2023-03-01T10:15:15.972Z,67.08
2023-03-01T10:16:16.055Z,70.27
2023-03-01T10:17:17.471Z,70.14
2023-03-01T10:18:15.974Z,66.93
2023-03-01T10:19:16.595Z,64.37
2023-03-01T10:20:15.965Z,61.49
2023-03-01T10:21:15.936Z,64.42
2023-03-01T10:22:15.944Z,65.94
2023-03-01T10:23:15.929Z,67.99
2023-03-01T10:24:15.957Z,64.21
2023-03-01T10:25:15.908Z,65.13
2023-03-01T10:26:15.897Z,64.59
2023-03-01T10:27:15.874Z,64.71
2023-03-01T10:28:15.873Z,62.09
2023-03-01T10:29:15.894Z,65.77
2023-03-01T10:30:15.855Z,68.10
2023-03-01T10:31:15.945Z,62.34
2023-03-01T10:32:15.880Z,67.43
2023-03-01T10:33:15.836Z,66.65
2023-03-01T10:34:15.838Z,66.44
2023-03-01T10:35:15.848Z,70.79
2023-03-01T10:36:15.800Z,62.40
2023-03-01T10:37:15.852Z,67.11
2023-03-01T10:38:15.799Z,65.06
2023-03-01T10:39:15.800Z,67.80
2023-03-01T10:40:15.793Z,66.26
2023-03-01T10:41:15.752Z,63.37
2023-03-01T10:42:15.781Z,67.55
2023-03-01T10:43:15.768Z,63.82
2023-03-01T10:44:15.739Z,64.57
2023-03-01T10:45:15.765Z,63.50
2023-03-01T10:46:15.803Z,67.07
2023-03-01T10:47:15.704Z,67.48
2023-03-01T10:48:15.776Z,68.50
2023-03-01T10:49:15.741Z,65.40
2023-03-01T10:50:15.711Z,67.71
2023-03-01T10:51:15.690Z,72.49
2023-03-01T10:52:15.740Z,65.54
2023-03-01T10:53:15.658Z,58.30
2023-03-01T10:54:15.650Z,68.86
2023-03-01T10:55:15.648Z,68.76
2023-03-01T10:56:15.697Z,64.98
2023-03-01T10:57:15.650Z,56.74
2023-03-01T10:58:15.751Z,68.40
2023-03-01T10:59:15.659Z,69.33
2023-03-01T11:00:15.647Z,64.79
2023-03-01T11:01:15.667Z,70.32
2023-03-01T11:02:24.542Z,63.49
2023-03-01T11:03:17.639Z,62.59
2023-03-01T11:04:15.662Z,68.69
2023-03-01T11:05:15.581Z,67.00
2023-03-01T11:06:15.581Z,67.56
2023-03-01T11:07:15.598Z,66.58
2023-03-01T11:08:15.570Z,70.36
2023-03-01T11:09:15.558Z,67.02
2023-03-01T11:10:15.558Z,64.36
2023-03-01T11:11:15.553Z,64.35
2023-03-01T11:12:15.534Z,66.45
2023-03-01T11:13:15.514Z,69.91
2023-03-01T11:14:25.876Z,68.04
2023-03-01T11:15:17.499Z,65.98
2023-03-01T11:16:15.614Z,67.67
2023-03-01T11:17:15.504Z,69.03
2023-03-01T11:18:15.518Z,59.44
2023-03-01T11:19:15.491Z,66.87
2023-03-01T11:20:15.539Z,65.76
2023-03-01T11:21:15.487Z,67.26
2023-03-01T11:22:15.524Z,64.54
2023-03-01T11:23:15.480Z,72.24
2023-03-01T11:24:15.441Z,64.09
2023-03-01T11:25:15.453Z,70.59
2023-03-01T11:26:15.420Z,63.92
2023-03-01T11:27:15.403Z,70.94
2023-03-01T11:28:16.027Z,67.16
2023-03-01T11:29:15.434Z,64.15
2023-03-01T11:30:15.454Z,64.88
2023-03-01T11:31:15.458Z,68.48
2023-03-01T11:32:15.461Z,67.40
2023-03-01T11:33:15.402Z,62.81
2023-03-01T11:34:15.387Z,63.59
2023-03-01T11:35:15.340Z,65.39
2023-03-01T11:36:16.190Z,68.79
2023-03-01T11:37:15.410Z,66.64
2023-03-01T11:38:15.348Z,65.73
2023-03-01T11:39:15.378Z,66.77
2023-03-01T11:40:15.435Z,69.31
2023-03-01T11:41:15.321Z,64.27
2023-03-01T11:42:19.150Z,67.55
2023-03-01T11:43:16.369Z,66.91
2023-03-01T11:44:15.320Z,70.70
2023-03-01T11:45:15.296Z,67.54
2023-03-01T11:46:15.350Z,67.91
2023-03-01T11:47:15.372Z,69.55
2023-03-01T11:48:15.269Z,66.45
2023-03-01T11:49:15.281Z,68.04
2023-03-01T11:50:15.252Z,65.90
2023-03-01T11:51:15.790Z,68.20
2023-03-01T11:52:16.255Z,66.03
2023-03-01T11:53:15.219Z,63.59
2023-03-01T11:54:15.196Z,67.66
2023-03-01T11:55:16.221Z,68.89
2023-03-01T11:56:15.220Z,69.84
2023-03-01T11:57:15.181Z,63.68
2023-03-01T11:58:15.168Z,65.41
2023-03-01T11:59:15.205Z,66.83
2023-03-01T12:00:15.196Z,60.66
2023-03-01T12:01:15.182Z,69.62
2023-03-01T12:02:15.202Z,63.51
2023-03-01T12:03:15.132Z,68.85
2023-03-01T12:04:15.236Z,67.96
2023-03-01T12:05:15.149Z,66.59
2023-03-01T12:06:15.146Z,70.13
2023-03-01T12:07:15.190Z,65.10
2023-03-01T12:08:15.113Z,66.92
2023-03-01T12:09:15.126Z,68.95
2023-03-01T12:10:15.130Z,65.53
2023-03-01T12:11:15.151Z,66.08
2023-03-01T12:12:15.082Z,68.84
2023-03-01T12:13:15.093Z,65.40
2023-03-01T12:14:15.046Z,67.95
2023-03-01T12:15:15.054Z,66.40
2023-03-01T12:16:16.270Z,69.25
2023-03-01T12:17:15.107Z,65.70
2023-03-01T12:18:15.029Z,65.70
2023-03-01T12:19:15.044Z,69.02
2023-03-01T12:20:15.129Z,67.49
2023-03-01T12:21:14.995Z,67.69
2023-03-01T12:22:14.984Z,67.84
2023-03-01T12:23:20.756Z,69.95
2023-03-01T12:24:16.973Z,67.76
2023-03-01T12:25:14.991Z,66.06
2023-03-01T12:26:14.992Z,65.99
2023-03-01T12:27:14.970Z,70.66
2023-03-01T12:28:14.967Z,71.79
2023-03-01T12:29:14.942Z,69.77
2023-03-01T12:30:14.930Z,70.08
2023-03-01T12:31:14.987Z,69.25
2023-03-01T12:32:15.202Z,65.11
2023-03-01T12:33:14.917Z,66.07
2023-03-01T12:34:14.952Z,71.58
2023-03-01T12:35:14.886Z,66.40
2023-03-01T12:36:14.936Z,65.51
2023-03-01T12:37:14.880Z,68.77
2023-03-01T12:38:14.857Z,72.05
2023-03-01T12:39:14.907Z,67.17
2023-03-01T12:40:14.847Z,67.77
2023-03-01T12:41:14.882Z,71.31
2023-03-01T12:42:14.822Z,65.65
2023-03-01T12:43:14.873Z,67.01
2023-03-01T12:44:14.841Z,70.09
2023-03-01T12:45:14.827Z,68.68
2023-03-01T12:46:14.864Z,68.73
2023-03-01T12:47:14.824Z,67.99
2023-03-01T12:48:14.800Z,66.17
2023-03-01T12:49:14.801Z,67.64
2023-03-01T12:50:14.872Z,65.26
2023-03-01T12:51:14.812Z,70.10
2023-03-01T12:52:14.758Z,67.88
2023-03-01T12:53:14.741Z,70.03
2023-03-01T12:54:14.759Z,69.42
2023-03-01T12:55:14.890Z,71.36
2023-03-01T12:56:14.720Z,70.17
2023-03-01T12:57:14.722Z,70.49
2023-03-01T12:58:14.728Z,66.83
2023-03-01T12:59:15.631Z,66.91
2023-03-01T13:00:14.734Z,67.30
2023-03-01T13:01:14.742Z,66.04
2023-03-01T13:02:14.666Z,64.38
2023-03-01T13:03:14.684Z,65.71
2023-03-01T13:04:14.705Z,69.27
2023-03-01T13:05:14.680Z,72.65
2023-03-01T13:06:14.690Z,69.99
2023-03-01T13:07:14.698Z,70.46
2023-03-01T13:08:14.695Z,65.99
2023-03-01T13:09:14.635Z,69.52
2023-03-01T13:10:14.648Z,68.59
2023-03-01T13:11:14.624Z,71.19
2023-03-01T13:12:20.220Z,72.33
2023-03-01T13:13:16.618Z,71.20
2023-03-01T13:14:14.580Z,68.34
2023-03-01T13:15:14.561Z,69.63
2023-03-01T13:16:15.907Z,71.07
2023-03-01T13:17:15.575Z,71.83
2023-03-01T13:18:15.198Z,68.98
2023-03-01T13:19:14.543Z,69.62
2023-03-01T13:20:14.596Z,69.12
2023-03-01T13:21:14.568Z,68.40
2023-03-01T13:22:14.540Z,69.55
2023-03-01T13:23:14.517Z,64.33
2023-03-01T13:24:14.514Z,60.66
2023-03-01T13:25:14.538Z,72.93
2023-03-01T13:26:14.493Z,65.82
2023-03-01T13:27:14.499Z,73.29
2023-03-01T13:28:15.116Z,70.25
2023-03-01T13:29:14.509Z,70.03
2023-03-01T13:30:14.454Z,71.46
2023-03-01T13:31:14.447Z,71.73
2023-03-01T13:32:14.534Z,71.42
2023-03-01T13:33:14.473Z,69.97
2023-03-01T13:34:14.456Z,69.39
2023-03-01T13:35:14.403Z,65.85
2023-03-01T13:36:14.497Z,70.65
2023-03-01T13:37:14.389Z,70.70
2023-03-01T13:38:14.415Z,72.27
2023-03-01T13:39:15.923Z,71.98
2023-03-01T13:40:14.385Z,70.39
2023-03-01T13:41:14.381Z,67.57
2023-03-01T13:42:14.354Z,70.80
2023-03-01T13:43:14.393Z,68.52
2023-03-01T13:44:14.586Z,71.07
2023-03-01T13:45:14.340Z,70.30
2023-03-01T13:46:14.402Z,70.81
2023-03-01T13:47:14.396Z,72.50
2023-03-01T13:48:14.336Z,67.44
2023-03-01T13:49:14.309Z,70.40
2023-03-01T13:50:14.321Z,68.78
2023-03-01T13:51:14.304Z,67.20
2023-03-01T13:52:14.672Z,72.57
2023-03-01T13:53:14.296Z,68.46
2023-03-01T13:54:14.260Z,72.48
2023-03-01T13:55:14.262Z,69.01
2023-03-01T13:56:14.258Z,65.04
2023-03-01T13:57:14.265Z,68.22
2023-03-01T13:58:14.232Z,71.03
2023-03-01T13:59:14.236Z,70.79
2023-03-01T14:00:14.254Z,71.83
2023-03-01T14:01:14.342Z,69.20
2023-03-01T14:02:14.227Z,65.95
2023-03-01T14:03:14.206Z,65.23
2023-03-01T14:04:14.300Z,66.61
2023-03-01T14:05:14.207Z,68.04
2023-03-01T14:06:17.256Z,68.72
2023-03-01T14:07:15.181Z,67.22
2023-03-01T14:08:14.203Z,70.26
2023-03-01T14:09:15.049Z,71.60
2023-03-01T14:10:14.179Z,67.25
2023-03-01T14:11:14.141Z,70.96
2023-03-01T14:12:14.135Z,69.31
2023-03-01T14:13:16.431Z,71.16
2023-03-01T14:14:15.170Z,68.10
2023-03-01T14:15:14.661Z,71.07
2023-03-01T14:16:14.145Z,71.63
2023-03-01T14:17:14.086Z,72.83
2023-03-01T14:18:14.101Z,70.96
2023-03-01T14:19:16.088Z,70.15
2023-03-01T14:20:15.088Z,68.40
2023-03-01T14:21:14.067Z,65.87
2023-03-01T14:22:14.088Z,70.77
2023-03-01T14:23:14.053Z,62.85
2023-03-01T14:24:14.045Z,68.89
2023-03-01T14:25:14.039Z,70.90
2023-03-01T14:26:14.059Z,64.68
2023-03-01T14:27:14.011Z,65.27
2023-03-01T14:28:14.002Z,68.67
2023-03-01T14:29:14.000Z,64.96
2023-03-01T14:30:14.040Z,67.58
2023-03-01T14:31:13.998Z,65.63
2023-03-01T14:32:14.008Z,68.20
2023-03-01T14:33:13.959Z,66.55
2023-03-01T14:34:13.973Z,70.17
2023-03-01T14:35:13.964Z,67.36
2023-03-01T14:36:14.034Z,65.15
2023-03-01T14:37:13.937Z,66.37
2023-03-01T14:38:13.959Z,64.51
2023-03-01T14:39:13.935Z,69.72
2023-03-01T14:40:13.929Z,64.78
2023-03-01T14:41:13.945Z,67.85
2023-03-01T14:42:15.733Z,71.38
2023-03-01T14:43:14.901Z,68.88
2023-03-01T14:44:13.878Z,70.50
2023-03-01T14:45:13.885Z,69.07
2023-03-01T14:46:13.896Z,71.19
2023-03-01T14:47:13.868Z,67.89
2023-03-01T14:48:13.873Z,67.86
2023-03-01T14:49:13.868Z,68.34
2023-03-01T14:50:13.884Z,67.43
2023-03-01T14:51:13.857Z,66.59
2023-03-01T14:52:13.874Z,69.93
2023-03-01T14:53:13.822Z,71.22
2023-03-01T14:54:13.811Z,68.70
2023-03-01T14:55:13.875Z,67.89
2023-03-01T14:56:13.794Z,72.14
2023-03-01T14:57:13.800Z,70.17
2023-03-01T14:58:13.838Z,71.14
2023-03-01T14:59:13.770Z,67.11
2023-03-01T15:00:13.762Z,70.02
2023-03-01T15:01:13.803Z,65.59
2023-03-01T15:02:13.751Z,66.32
2023-03-01T15:03:13.746Z,71.29
2023-03-01T15:04:13.812Z,70.70
2023-03-01T15:05:13.729Z,71.20
2023-03-01T15:06:13.739Z,71.83
2023-03-01T15:07:13.694Z,68.42
2023-03-01T15:08:13.737Z,69.15
2023-03-01T15:09:13.681Z,70.80
2023-03-01T15:10:13.685Z,70.92
2023-03-01T15:11:13.697Z,69.40
2023-03-01T15:12:14.648Z,70.07
2023-03-01T15:13:13.719Z,68.31
2023-03-01T15:14:13.648Z,69.11
2023-03-01T15:15:13.636Z,67.40
2023-03-01T15:16:13.742Z,68.52
2023-03-01T15:17:13.639Z,66.98
2023-03-01T15:18:13.670Z,70.52
2023-03-01T15:19:13.614Z,70.18
2023-03-01T15:20:13.633Z,65.67
2023-03-01T15:21:13.600Z,67.57
2023-03-01T15:22:15.568Z,70.36
2023-03-01T15:23:13.604Z,69.52
2023-03-01T15:24:13.597Z,66.71
2023-03-01T15:25:13.550Z,67.72
2023-03-01T15:26:13.576Z,70.33
2023-03-01T15:27:13.573Z,61.64
2023-03-01T15:28:13.648Z,70.37
2023-03-01T15:29:13.543Z,68.72
2023-03-01T15:30:13.545Z,66.69
2023-03-01T15:31:13.544Z,71.51
2023-03-01T15:32:13.596Z,67.58
2023-03-01T15:33:13.523Z,68.12
2023-03-01T15:34:13.480Z,69.45
2023-03-01T15:35:13.481Z,70.46
2023-03-01T15:36:13.477Z,71.14
2023-03-01T15:37:13.501Z,69.29
2023-03-01T15:38:24.645Z,70.56
2023-03-01T15:39:15.470Z,69.30
2023-03-01T15:40:13.434Z,66.32
2023-03-01T15:41:13.447Z,71.20
2023-03-01T15:42:13.457Z,71.65
2023-03-01T15:43:13.422Z,68.51
2023-03-01T15:47:45.284Z,70.76
2023-03-01T15:48:45.278Z,71.28
2023-03-01T15:49:55.052Z,68.29
2023-03-01T15:50:46.238Z,70.02
2023-03-01T15:51:45.233Z,68.99
2023-03-01T15:52:45.211Z,69.72
2023-03-01T15:53:53.990Z,72.53
2023-03-01T15:54:46.226Z,69.37
2023-03-01T15:55:46.375Z,71.05
2023-03-01T15:56:46.331Z,69.13
2023-03-01T15:57:46.352Z,71.22
2023-03-01T15:58:46.317Z,70.63
2023-03-01T15:59:46.300Z,68.41
2023-03-01T16:00:59.905Z,66.94
2023-03-01T16:01:48.314Z,67.86
2023-03-01T16:02:46.334Z,67.08
2023-03-01T16:03:46.344Z,68.24
2023-03-01T16:04:46.260Z,64.99
2023-03-01T16:05:46.283Z,68.70
2023-03-01T16:06:46.302Z,71.72
2023-03-01T16:07:46.287Z,69.89
2023-03-01T16:08:46.247Z,66.07
2023-03-01T16:09:46.235Z,69.68
2023-03-01T16:10:46.279Z,69.56
2023-03-01T16:11:46.225Z,67.46
2023-03-01T16:12:46.304Z,67.77
2023-03-01T16:13:46.278Z,67.97
2023-03-01T16:14:46.260Z,71.90
2023-03-01T16:15:46.238Z,67.57
2023-03-01T16:16:46.254Z,74.11
2023-03-01T16:17:46.288Z,73.69
2023-03-01T16:18:46.178Z,70.26
2023-03-01T16:19:46.206Z,71.90
2023-03-01T16:20:46.145Z,70.45
2023-03-01T16:21:46.147Z,68.44
2023-03-01T16:22:46.125Z,73.13
2023-03-01T16:23:46.160Z,66.65
2023-03-01T16:24:46.160Z,68.17
2023-03-01T16:25:46.095Z,71.09
2023-03-01T16:26:47.060Z,70.79
2023-03-01T16:27:46.123Z,70.40
2023-03-01T16:28:46.156Z,70.82
2023-03-01T16:29:46.099Z,71.42
2023-03-01T16:31:19.376Z,66.64
2023-03-01T16:31:47.796Z,73.65
2023-03-01T16:36:43.836Z,71.76
2023-03-01T16:37:45.661Z,68.21
2023-03-01T16:38:46.521Z,71.79
2023-03-01T16:39:44.369Z,67.43
2023-03-01T16:40:44.542Z,68.25
2023-03-01T16:41:46.360Z,68.06
2023-03-01T16:42:48.134Z,67.55
2023-03-01T16:43:45.169Z,70.35
2023-03-01T16:44:44.178Z,70.19
2023-03-01T16:45:44.371Z,71.47
2023-03-01T16:46:44.096Z,71.99
2023-03-01T16:47:44.109Z,68.81
2023-03-01T16:48:44.392Z,69.09
2023-03-01T16:49:44.165Z,71.41
2023-03-01T16:50:45.440Z,65.96
2023-03-01T16:51:44.260Z,70.76
2023-03-01T16:52:44.115Z,67.84
2023-03-01T16:53:47.050Z,68.22
2023-03-01T16:54:45.091Z,69.40
2023-03-01T16:55:44.210Z,65.93
2023-03-01T16:56:44.114Z,69.53
2023-03-01T16:57:44.153Z,65.51
2023-03-01T16:58:43.999Z,65.98
2023-03-01T16:59:44.044Z,68.36
2023-03-01T17:00:44.065Z,66.23
2023-03-01T17:01:44.109Z,66.67
2023-03-01T17:02:43.932Z,65.27
2023-03-01T17:03:43.885Z,68.43
2023-03-01T17:04:43.959Z,67.00
2023-03-01T17:05:44.046Z,64.26
2023-03-01T17:06:43.920Z,68.42
2023-03-01T17:07:43.914Z,64.32
2023-03-01T17:08:43.936Z,68.65
2023-03-01T17:09:43.905Z,64.27
2023-03-01T17:10:43.985Z,64.07
2023-03-01T17:11:44.023Z,71.00
2023-03-01T17:12:44.053Z,65.51
2023-03-01T17:13:44.032Z,66.20
2023-03-01T17:14:43.834Z,69.35
2023-03-01T17:15:44.422Z,66.13
2023-03-01T17:16:43.899Z,68.15
2023-03-01T17:17:43.833Z,68.64
2023-03-01T17:18:43.837Z,64.47
2023-03-01T17:19:44.447Z,69.15
2023-03-01T17:20:44.143Z,64.23
2023-03-01T17:21:48.954Z,62.61
2023-03-01T17:22:43.841Z,67.32
2023-03-01T18:13:24.286Z,60.29
2023-03-01T18:14:24.690Z,65.86
2023-03-01T18:15:24.892Z,65.97
2023-03-01T18:16:24.871Z,62.70
2023-03-01T18:17:25.251Z,64.05
2023-03-01T18:18:24.244Z,64.93
2023-03-01T18:19:26.079Z,66.25
2023-03-01T18:20:24.904Z,61.89
2023-03-01T18:21:24.827Z,58.29
2023-03-01T18:22:24.191Z,63.45
2023-03-01T18:26:43.793Z,58.77
2023-03-01T18:27:45.009Z,61.95
2023-03-01T18:28:45.253Z,57.37
2023-03-01T18:33:49.967Z,64.46
2023-03-01T18:34:49.880Z,66.98
2023-03-01T18:35:49.904Z,62.97
2023-03-01T18:37:08.157Z,66.58
2023-03-01T18:37:52.058Z,61.11
2023-03-01T18:38:51.122Z,58.46
2023-03-01T18:39:52.671Z,62.04
2023-03-01T18:40:51.620Z,63.13
2023-03-01T18:41:50.748Z,60.64
2023-03-01T18:42:50.164Z,64.13
2023-03-01T18:43:50.536Z,62.92
2023-03-01T18:44:50.014Z,63.33
2023-03-01T18:45:51.551Z,64.57
2023-03-01T18:46:51.670Z,61.38
2023-03-01T18:47:52.153Z,62.59
2023-03-01T18:48:52.186Z,63.92
2023-03-01T18:49:51.429Z,62.23
2023-03-01T18:50:50.810Z,58.75
2023-03-01T18:51:50.964Z,63.39
2023-03-01T18:52:51.811Z,59.79
2023-03-01T18:53:51.403Z,59.44
2023-03-01T19:01:17.967Z,54.43
2023-03-01T19:02:16.492Z,61.25
2023-03-01T19:03:16.346Z,60.15
2023-03-01T19:07:57.877Z,56.57
2023-03-01T19:08:57.857Z,59.33
2023-03-01T19:09:57.860Z,59.22
2023-03-01T19:10:57.820Z,58.61
2023-03-01T19:11:57.851Z,67.09
2023-03-01T19:12:57.849Z,55.83
2023-03-01T19:13:57.839Z,55.29
2023-03-01T19:14:57.787Z,62.55
2023-03-01T19:15:57.896Z,60.16
2023-03-01T19:16:58.943Z,57.82
2023-03-01T19:17:59.004Z,59.12
2023-03-01T19:18:58.965Z,61.29
2023-03-01T19:19:58.930Z,65.09
2023-03-01T19:21:03.456Z,59.24
2023-03-01T19:22:05.716Z,56.34
2023-03-01T19:23:01.937Z,57.92
2023-03-01T19:23:59.912Z,62.99
2023-03-01T19:24:58.932Z,60.41
2023-03-01T19:25:58.881Z,55.10
2023-03-01T19:26:58.979Z,57.81
2023-03-01T19:27:58.866Z,59.58
2023-03-01T19:28:58.903Z,58.52
2023-03-01T19:29:58.878Z,60.55
2023-03-01T19:30:58.911Z,58.63
2023-03-01T19:31:58.936Z,65.96
2023-03-01T19:32:58.916Z,59.60
2023-03-01T19:34:10.410Z,64.62
2023-03-01T19:35:00.852Z,57.18
2023-03-01T19:35:58.970Z,60.32
2023-03-01T19:36:59.102Z,59.13
2023-03-01T19:37:58.937Z,49.83
2023-03-01T19:38:58.949Z,56.49
2023-03-01T19:39:58.818Z,62.79
2023-03-01T19:40:58.856Z,61.27
2023-03-01T19:41:58.831Z,63.22
2023-03-01T19:42:58.748Z,59.28
2023-03-01T19:43:58.764Z,59.95
2023-03-01T19:44:58.736Z,52.23
2023-03-01T19:45:58.746Z,57.76
2023-03-01T19:46:58.748Z,66.25
2023-03-01T19:47:59.780Z,59.67
2023-03-01T19:48:58.779Z,66.07
2023-03-01T19:49:58.749Z,62.35
2023-03-01T19:50:58.784Z,57.94
2023-03-01T19:51:58.698Z,57.01
2023-03-01T19:52:58.681Z,54.46
2023-03-01T19:53:59.038Z,56.55
2023-03-01T19:55:08.829Z,58.68
2023-03-01T19:56:00.328Z,60.79
2023-03-01T19:56:58.636Z,52.62
2023-03-01T19:57:58.703Z,64.03
2023-03-01T19:58:58.642Z,55.72
2023-03-01T19:59:58.609Z,63.69
2023-03-01T20:00:58.757Z,62.05
2023-03-01T20:01:58.648Z,60.49
2023-03-01T20:02:58.630Z,57.13
2023-03-01T20:03:58.649Z,61.53
2023-03-01T20:05:00.337Z,55.56
2023-03-01T20:05:58.656Z,63.03
2023-03-01T20:06:58.587Z,56.49
2023-03-01T20:07:58.588Z,60.17
2023-03-01T20:09:02.383Z,61.93
2023-03-01T20:09:58.583Z,63.62
2023-03-01T20:10:58.567Z,58.80
2023-03-01T20:11:58.542Z,57.31
2023-03-01T20:13:31.951Z,58.53
2023-03-01T20:14:00.274Z,60.06
2023-03-01T20:15:00.476Z,61.79
2023-03-01T20:15:58.626Z,61.38
2023-03-01T20:16:58.484Z,56.44
2023-03-01T20:17:58.567Z,57.19
2023-03-01T20:18:59.413Z,65.16
2023-03-01T20:19:58.538Z,50.77
2023-03-01T20:20:58.457Z,59.44
2023-03-01T20:21:58.486Z,59.48
2023-03-01T20:22:59.428Z,59.24
2023-03-01T20:23:58.560Z,60.47
2023-03-01T20:24:58.506Z,61.92
2023-03-01T20:25:58.507Z,61.96
2023-03-01T20:26:59.499Z,62.55
2023-03-01T20:27:59.522Z,55.64
2023-03-01T20:28:58.425Z,58.48
2023-03-01T20:29:58.491Z,64.06
2023-03-01T20:30:58.407Z,61.36
2023-03-01T20:31:58.577Z,48.57
2023-03-01T20:32:58.389Z,54.64
2023-03-01T20:33:58.388Z,58.46
2023-03-01T20:34:58.402Z,50.16
2023-03-01T20:35:58.433Z,54.33
2023-03-01T20:37:33.858Z,56.63
2023-03-01T20:38:32.437Z,62.79
2023-03-01T20:39:30.863Z,49.87
2023-03-01T20:40:33.464Z,47.01
2023-03-01T20:40:58.343Z,51.39
2023-03-01T20:42:31.985Z,58.91
2023-03-01T20:42:58.276Z,56.47
2023-03-01T20:43:58.312Z,61.84
2023-03-01T20:44:58.300Z,55.87
2023-03-01T20:45:58.256Z,55.22
2023-03-01T20:46:59.339Z,53.93
2023-03-01T20:47:59.241Z,55.89
2023-03-01T20:48:58.293Z,57.18
2023-03-01T20:49:58.233Z,59.65
2023-03-01T20:50:58.247Z,58.33
2023-03-01T20:51:58.272Z,55.47
2023-03-01T20:52:58.233Z,50.46
2023-03-01T20:53:58.253Z,48.99
2023-03-01T20:54:58.256Z,61.36
2023-03-01T20:55:59.006Z,57.07
2023-03-01T20:56:58.190Z,57.54
2023-03-01T20:57:58.210Z,62.45
2023-03-01T20:58:59.221Z,58.50
2023-03-01T20:59:58.177Z,56.81
2023-03-01T21:00:58.200Z,60.45
2023-03-01T21:01:58.121Z,51.92
2023-03-01T21:02:58.163Z,47.75
2023-03-01T21:03:58.218Z,55.17
2023-03-01T21:04:58.170Z,60.48
2023-03-01T21:05:58.173Z,60.33
2023-03-01T21:06:58.121Z,62.14
2023-03-01T21:07:58.139Z,48.94
2023-03-01T21:08:58.118Z,61.21
2023-03-01T21:09:58.139Z,61.78
2023-03-01T21:10:58.156Z,58.25
2023-03-01T21:11:58.138Z,59.26
2023-03-01T21:12:58.084Z,59.10
2023-03-01T21:13:58.104Z,51.83
2023-03-01T21:14:58.070Z,54.00
2023-03-01T21:15:58.096Z,48.66
2023-03-01T21:16:58.045Z,56.28
2023-03-01T21:17:58.114Z,54.79
2023-03-01T21:18:58.017Z,55.01
2023-03-01T21:19:58.056Z,47.17
2023-03-01T21:20:58.058Z,60.42
2023-03-01T21:21:58.024Z,55.83
2023-03-01T21:22:58.053Z,56.33
2023-03-01T21:23:57.972Z,52.68
2023-03-01T21:24:58.010Z,59.29
2023-03-01T21:25:58.010Z,52.31
2023-03-01T21:26:58.003Z,55.24
2023-03-01T21:27:57.968Z,60.99
2023-03-01T21:28:57.999Z,59.84
2023-03-01T21:29:57.989Z,45.70
2023-03-01T21:30:57.964Z,48.06
2023-03-01T21:31:58.068Z,51.09
2023-03-01T21:32:57.902Z,51.99
2023-03-01T21:33:57.927Z,52.88
2023-03-01T21:35:02.111Z,61.75
2023-03-01T21:35:57.948Z,46.27
2023-03-01T21:36:57.949Z,52.54
2023-03-01T21:37:57.978Z,51.90
2023-03-01T21:38:57.887Z,57.58
2023-03-01T21:39:57.924Z,52.29
2023-03-01T21:40:57.897Z,54.22
2023-03-01T21:41:57.910Z,49.69
2023-03-01T21:42:57.865Z,54.95
2023-03-01T21:43:57.854Z,56.45
2023-03-01T21:44:57.858Z,54.00
2023-03-01T21:45:58.691Z,50.78
2023-03-01T21:47:00.591Z,61.57
2023-03-01T21:48:00.460Z,59.37
2023-03-01T21:48:59.838Z,56.16
2023-03-01T21:49:57.826Z,54.03
2023-03-01T21:50:57.826Z,51.60
2023-03-01T21:51:57.806Z,55.98
2023-03-01T21:52:57.824Z,53.79
2023-03-01T21:53:58.356Z,53.10
2023-03-01T21:54:57.769Z,53.01
2023-03-01T21:55:57.777Z,46.46
2023-03-01T21:56:57.779Z,64.63
2023-03-01T21:57:57.804Z,51.64
2023-03-01T21:58:57.786Z,52.08
2023-03-01T21:59:58.543Z,58.90
2023-03-01T22:00:57.778Z,59.89
2023-03-01T22:01:57.729Z,48.17
2023-03-01T22:02:57.719Z,44.76
2023-03-01T22:03:57.748Z,45.76
2023-03-01T22:04:57.718Z,55.38
2023-03-01T22:05:57.672Z,61.16
2023-03-01T22:06:57.674Z,51.46
2023-03-01T22:07:57.672Z,54.08
2023-03-01T22:08:57.692Z,53.84
2023-03-01T22:10:30.135Z,52.15
2023-03-01T22:10:57.618Z,45.73
2023-03-01T22:11:57.628Z,50.99
2023-03-01T22:12:57.690Z,54.42
2023-03-01T22:13:57.658Z,55.33
2023-03-01T22:14:57.618Z,60.35
2023-03-01T22:15:57.593Z,58.30
2023-03-01T22:16:57.673Z,45.44
2023-03-01T22:17:57.626Z,53.34
2023-03-01T22:18:57.635Z,48.66
2023-03-01T22:19:57.641Z,56.36
2023-03-01T22:20:57.594Z,46.89
2023-03-01T22:21:57.546Z,58.12
2023-03-01T22:22:57.565Z,51.17
2023-03-01T22:23:57.568Z,52.94
2023-03-01T22:24:58.090Z,56.36
2023-03-01T22:25:57.581Z,54.81
2023-03-01T22:26:57.520Z,51.83
2023-03-01T22:27:58.051Z,51.14
2023-03-01T22:28:57.562Z,53.52
2023-03-01T22:29:57.507Z,53.68
2023-03-01T22:30:57.491Z,46.78
2023-03-01T22:31:57.634Z,44.00
2023-03-01T22:32:57.545Z,49.85
2023-03-01T22:33:58.054Z,47.01
2023-03-01T22:34:57.456Z,57.84
2023-03-01T22:35:57.552Z,54.26
2023-03-01T22:36:57.498Z,49.26
2023-03-01T22:37:57.493Z,53.56
2023-03-01T22:38:58.473Z,44.27
2023-03-01T22:39:57.414Z,51.00
2023-03-01T22:40:57.541Z,54.87
2023-03-01T22:41:57.474Z,48.64
2023-03-01T22:42:57.427Z,50.09
2023-03-01T22:43:57.460Z,48.95
2023-03-01T22:44:57.421Z,59.32
2023-03-01T22:45:57.418Z,49.46
2023-03-01T22:46:57.400Z,49.66
2023-03-01T22:47:57.371Z,50.21
2023-03-01T22:48:57.384Z,50.40
2023-03-01T22:49:57.354Z,50.80
2023-03-01T22:50:57.369Z,48.33
2023-03-01T22:51:57.884Z,51.93
2023-03-01T22:52:57.336Z,55.63
2023-03-01T22:53:57.327Z,54.89
2023-03-01T22:54:57.316Z,51.71
2023-03-01T22:55:58.125Z,55.75
2023-03-01T22:56:57.333Z,52.72
2023-03-01T22:57:57.339Z,48.53
2023-03-01T22:58:57.342Z,51.74
2023-03-01T22:59:57.273Z,45.35
2023-03-01T23:00:57.316Z,45.68
2023-03-01T23:01:58.071Z,50.22
2023-03-01T23:02:57.490Z,56.20
2023-03-01T23:03:57.273Z,51.32
2023-03-01T23:04:57.292Z,51.52
2023-03-01T23:05:57.267Z,57.13
2023-03-01T23:06:58.099Z,56.97
2023-03-01T23:07:57.276Z,56.04
2023-03-01T23:08:57.621Z,52.12
2023-03-01T23:09:57.253Z,51.66
2023-03-01T23:10:57.216Z,58.65
2023-03-01T23:11:57.218Z,55.57
2023-03-01T23:12:57.201Z,59.23
2023-03-01T23:13:57.264Z,53.05
2023-03-01T23:14:57.172Z,44.93
2023-03-01T23:15:57.184Z,50.17
2023-03-01T23:16:57.202Z,50.22
2023-03-01T23:17:57.159Z,49.31
2023-03-01T23:18:57.154Z,51.55
2023-03-01T23:19:57.149Z,52.10